Time;durP1;ratioP1;P1;durP2;ratioP2;P2;SDS_P1;SDS_P2;PMS_P1;PMS_P2;Temp;Humidity;BMP_temperature;BMP_pressure;BME280_temperature;BME280_humidity;BME280_pressure;Samples;Min_cycle;Max_cycle;Signal;HPM_P1;HPM_P2
2023/11/28 00:00:35;;;;;;;11.23;8.45;;;;;;;-0.21;100.00;98471.13;10371537;28;20146;-78
2023/11/28 00:05:38;;;;;;;9.55;8.15;;;;;;;-0.18;100.00;98471.75;10374671;28;20536;-78
2023/11/28 00:10:43;;;;;;;12.13;9.35;;;;;;;-0.20;100.00;98473.63;10363997;28;20057;-78
2023/11/28 00:15:46;;;;;;;12.55;9.88;;;;;;;-0.28;100.00;98479.41;10376120;28;20057;-78
2023/11/28 00:20:49;;;;;;;14.20;10.63;;;;;;;-0.24;100.00;98488.00;10365203;28;20049;-78
2023/11/28 00:25:53;;;;;;;13.23;10.40;;;;;;;-0.35;100.00;98491.34;10369942;28;20056;-78
2023/11/28 00:30:56;;;;;;;13.25;9.55;;;;;;;-0.35;100.00;98496.63;10372783;28;20045;-78
2023/11/28 00:35:59;;;;;;;13.57;10.23;;;;;;;-0.29;100.00;98495.38;10371533;28;20049;-79
2023/11/28 00:41:05;;;;;;;11.95;9.90;;;;;;;-0.21;100.00;98508.06;10372229;28;20056;-78
2023/11/28 00:46:09;;;;;;;14.82;9.80;;;;;;;-0.28;100.00;98510.25;10358547;28;20097;-78
2023/11/28 00:51:14;;;;;;;12.80;9.60;;;;;;;-0.27;100.00;98511.94;10367731;28;20049;-78
2023/11/28 00:56:22;;;;;;;12.50;9.63;;;;;;;-0.39;100.00;98521.50;10364550;28;21371;-79
2023/11/28 01:01:25;;;;;;;12.55;9.32;;;;;;;-0.39;100.00;98529.41;10367812;28;20053;-78
2023/11/28 01:06:28;;;;;;;12.35;9.02;;;;;;;-0.36;100.00;98536.28;10358067;28;20057;-78
2023/11/28 01:11:32;;;;;;;13.75;9.95;;;;;;;-0.37;100.00;98537.25;10370797;28;20056;-78
2023/11/28 01:16:35;;;;;;;13.43;9.50;;;;;;;-0.47;100.00;98552.81;10368257;28;20053;-79
2023/11/28 01:21:38;;;;;;;10.90;8.93;;;;;;;-0.46;100.00;98543.97;10368314;28;20053;-79
2023/11/28 01:26:43;;;;;;;10.05;7.28;;;;;;;-0.46;100.00;98551.03;10370469;28;21477;-78
2023/11/28 01:31:46;;;;;;;9.38;7.53;;;;;;;-0.50;100.00;98558.28;10384955;28;20053;-78
2023/11/28 01:36:49;;;;;;;8.50;6.85;;;;;;;-0.41;100.00;98575.31;10373852;28;20049;-78
2023/11/28 01:41:53;;;;;;;8.65;7.18;;;;;;;-0.44;100.00;98586.06;10358592;28;20050;-78
2023/11/28 01:46:57;;;;;;;7.07;5.63;;;;;;;-0.39;100.00;98583.97;10361081;28;20531;-78
2023/11/28 01:52:01;;;;;;;7.80;5.60;;;;;;;-0.40;100.00;98593.69;10361161;28;20045;-79
2023/11/28 01:57:06;;;;;;;6.32;5.63;;;;;;;-0.65;100.00;98604.97;10360147;28;20046;-79
2023/11/28 02:02:09;;;;;;;6.45;5.60;;;;;;;-0.48;100.00;98608.31;10363925;28;20614;-78
2023/11/28 02:07:14;;;;;;;6.90;5.22;;;;;;;-0.48;100.00;98606.50;10372901;28;20045;-78
2023/11/28 02:12:18;;;;;;;6.47;5.50;;;;;;;-0.44;100.00;98615.91;10375316;28;20046;-79
2023/11/28 02:17:22;;;;;;;7.10;6.03;;;;;;;-0.51;100.00;98619.91;10362695;28;20062;-78
2023/11/28 02:22:26;;;;;;;8.48;6.22;;;;;;;-0.37;100.00;98625.16;10390509;28;20052;-78
2023/11/28 02:27:30;;;;;;;9.13;6.80;;;;;;;-0.48;100.00;98632.91;10372491;28;20054;-78
2023/11/28 02:32:34;;;;;;;9.63;7.28;;;;;;;-0.46;100.00;98638.09;10364771;28;20049;-78
2023/11/28 02:37:41;;;;;;;10.45;6.68;;;;;;;-0.42;100.00;98639.56;10364410;28;21567;-78
2023/11/28 02:42:45;;;;;;;9.43;6.63;;;;;;;-0.44;100.00;98658.13;10361798;28;20069;-78
2023/11/28 02:47:49;;;;;;;11.65;6.57;;;;;;;-0.40;100.00;98659.63;10356288;28;20049;-78
2023/11/28 02:52:52;;;;;;;9.65;7.82;;;;;;;-0.45;100.00;98667.00;10355031;28;20045;-78
2023/11/28 02:57:56;;;;;;;9.75;7.40;;;;;;;-0.50;100.00;98674.34;10353674;28;20095;-78
2023/11/28 03:02:59;;;;;;;11.27;7.95;;;;;;;-0.57;100.00;98678.31;10354224;28;20041;-78
2023/11/28 03:08:03;;;;;;;12.32;8.55;;;;;;;-0.50;100.00;98688.38;10350721;28;20412;-78
2023/11/28 03:13:08;;;;;;;12.55;9.07;;;;;;;-0.47;100.00;98689.13;10349523;28;20536;-78
2023/11/28 03:18:11;;;;;;;14.38;9.52;;;;;;;-0.47;100.00;98694.41;10345956;28;20050;-78
2023/11/28 03:23:14;;;;;;;17.05;10.13;;;;;;;-0.60;100.00;98702.25;10356688;28;20199;-78
2023/11/28 03:28:18;;;;;;;15.77;9.07;;;;;;;-0.49;100.00;98702.44;10364926;28;20507;-78
2023/11/28 03:33:21;;;;;;;13.48;8.85;;;;;;;-0.63;100.00;98705.06;10348662;28;21138;-78
2023/11/28 03:38:24;;;;;;;12.02;8.73;;;;;;;-0.50;100.00;98722.66;10356735;28;20046;-78
2023/11/28 03:43:28;;;;;;;14.05;8.77;;;;;;;-0.59;100.00;98719.75;10364637;28;20057;-79
2023/11/28 03:48:31;;;;;;;15.90;9.48;;;;;;;-0.53;100.00;98727.28;10365569;28;20119;-78
2023/11/28 03:53:36;;;;;;;16.67;9.10;;;;;;;-0.59;100.00;98739.06;10355946;28;20053;-79
2023/11/28 03:58:40;;;;;;;14.35;8.18;;;;;;;-0.52;100.00;98750.09;10353365;28;20060;-78
2023/11/28 04:03:44;;;;;;;15.00;9.73;;;;;;;-0.45;100.00;98761.13;10349689;28;20132;-78
2023/11/28 04:08:48;;;;;;;17.48;10.02;;;;;;;-0.46;100.00;98755.00;10351015;28;20468;-78
2023/11/28 04:13:53;;;;;;;21.38;10.27;;;;;;;-0.46;100.00;98769.97;10357083;28;20128;-78
2023/11/28 04:18:56;;;;;;;18.70;10.60;;;;;;;-0.48;100.00;98774.50;10346602;28;20077;-78
2023/11/28 04:23:59;;;;;;;18.63;10.18;;;;;;;-0.45;100.00;98783.06;10357587;28;20056;-78
2023/11/28 04:29:04;;;;;;;18.35;10.82;;;;;;;-0.48;100.00;98782.41;10352760;28;20041;-78
2023/11/28 04:34:07;;;;;;;20.25;10.32;;;;;;;-0.53;100.00;98785.31;10346130;28;20128;-78
2023/11/28 04:39:11;;;;;;;16.92;8.55;;;;;;;-0.58;100.00;98793.50;10353654;28;20224;-78
2023/11/28 04:44:16;;;;;;;20.67;9.75;;;;;;;-0.49;100.00;98792.13;10352757;28;20115;-77
2023/11/28 04:49:20;;;;;;;19.52;8.80;;;;;;;-0.59;100.00;98798.88;10354608;28;20049;-78
2023/11/28 04:54:23;;;;;;;18.88;8.48;;;;;;;-0.59;100.00;98806.78;10358805;28;20057;-78
2023/11/28 04:59:28;;;;;;;18.27;8.18;;;;;;;-0.61;100.00;98820.06;10354423;28;20049;-78
2023/11/28 05:04:31;;;;;;;16.20;7.97;;;;;;;-0.55;100.00;98835.53;10347903;28;20473;-77
2023/11/28 05:09:34;;;;;;;16.52;7.75;;;;;;;-0.59;100.00;98838.44;10347746;28;20385;-78
2023/11/28 05:14:38;;;;;;;15.57;7.53;;;;;;;-0.52;100.00;98850.34;10358499;28;20468;-78
2023/11/28 05:19:42;;;;;;;14.82;6.97;;;;;;;-0.72;100.00;98859.41;10360663;28;20057;-78
2023/11/28 05:24:45;;;;;;;16.88;7.35;;;;;;;-0.66;100.00;98868.75;10352318;28;20073;-78
2023/11/28 05:29:49;;;;;;;16.65;7.53;;;;;;;-0.75;100.00;98884.16;10349542;28;20058;-78
2023/11/28 05:34:52;;;;;;;16.85;6.95;;;;;;;-0.67;100.00;98885.50;10346953;28;20140;-77
2023/11/28 05:39:55;;;;;;;13.27;6.63;;;;;;;-0.77;100.00;98886.06;10347604;28;20709;-77
2023/11/28 05:45:00;;;;;;;11.20;5.95;;;;;;;-0.72;100.00;98901.59;10344951;28;20053;-77
2023/11/28 05:50:03;;;;;;;11.52;6.13;;;;;;;-0.91;100.00;98904.44;10351287;28;20046;-78
2023/11/28 05:55:07;;;;;;;10.13;6.00;;;;;;;-0.76;100.00;98922.03;10352406;28;20582;-77
2023/11/28 06:00:14;;;;;;;11.57;6.32;;;;;;;-0.91;100.00;98920.25;10357755;28;20045;-77
2023/11/28 06:05:22;;;;;;;15.05;6.85;;;;;;;-0.86;100.00;98936.66;10332647;28;20103;-77
2023/11/28 06:10:26;;;;;;;14.38;6.82;;;;;;;-0.92;100.00;98944.94;10347760;28;20050;-78
2023/11/28 06:15:31;;;;;;;12.18;5.55;;;;;;;-0.90;100.00;98953.63;10401548;28;20042;-77
2023/11/28 06:20:34;;;;;;;9.30;5.15;;;;;;;-0.97;100.00;98965.44;10362843;28;21215;-77
2023/11/28 06:25:37;;;;;;;11.38;5.28;;;;;;;-1.14;100.00;98978.69;10358241;28;20658;-77
2023/11/28 06:30:41;;;;;;;7.20;4.47;;;;;;;-1.18;100.00;98984.16;10351370;28;20054;-77
2023/11/28 06:35:44;;;;;;;6.07;3.70;;;;;;;-1.24;100.00;98992.38;10346110;28;20081;-77
2023/11/28 06:40:47;;;;;;;6.68;4.15;;;;;;;-1.33;100.00;98997.28;10346167;28;20045;-77
2023/11/28 06:45:58;;;;;;;4.72;3.47;;;;;;;-1.34;100.00;99014.03;10351882;28;20066;-77
2023/11/28 06:51:01;;;;;;;7.80;3.87;;;;;;;-1.40;100.00;99018.72;10339663;28;20049;-78
2023/11/28 06:56:05;;;;;;;9.98;3.05;;;;;;;-1.44;100.00;99034.75;10355307;28;20787;-77
2023/11/28 07:01:10;;;;;;;7.40;3.88;;;;;;;-1.53;100.00;99045.78;10356247;28;20207;-77
2023/11/28 07:06:13;;;;;;;5.07;3.22;;;;;;;-1.51;100.00;99054.44;10351066;28;20049;-78
2023/11/28 07:11:19;;;;;;;5.47;3.22;;;;;;;-1.57;100.00;99065.28;10359050;28;20052;-79
2023/11/28 07:16:24;;;;;;;4.50;3.22;;;;;;;-1.60;100.00;99087.38;10357468;28;21649;-80
2023/11/28 07:21:27;;;;;;;4.80;3.15;;;;;;;-1.70;100.00;99086.13;10364105;28;20578;-80
2023/11/28 07:26:30;;;;;;;4.63;2.90;;;;;;;-1.55;100.00;99093.25;10358217;28;20052;-78
2023/11/28 07:31:34;;;;;;;5.78;2.95;;;;;;;-1.64;100.00;99105.13;10363048;28;20052;-78
2023/11/28 07:36:37;;;;;;;2.85;2.55;;;;;;;-1.61;100.00;99114.66;10359768;28;20064;-77
2023/11/28 07:41:40;;;;;;;3.83;2.70;;;;;;;-1.61;100.00;99119.91;10360308;28;20805;-79
2023/11/28 07:46:46;;;;;;;4.10;3.25;;;;;;;-1.52;100.00;99134.38;10366018;28;20045;-78
2023/11/28 07:51:49;;;;;;;6.25;3.38;;;;;;;-1.44;100.00;99142.75;10349154;28;20057;-78
2023/11/28 07:56:52;;;;;;;4.72;3.10;;;;;;;-1.39;100.00;99153.91;10357771;28;20046;-78
2023/11/28 08:01:56;;;;;;;4.50;3.00;;;;;;;-1.25;100.00;99161.94;10355344;28;20038;-79
2023/11/28 08:06:59;;;;;;;8.55;5.03;;;;;;;-0.39;100.00;99159.97;10360912;28;20045;-80
2023/11/28 08:12:03;;;;;;;8.35;4.93;;;;;;;-0.13;100.00;99168.25;10397155;28;20053;-79
2023/11/28 08:17:07;;;;;;;4.13;3.47;;;;;;;0.21;99.79;99172.44;10360732;28;20048;-78
2023/11/28 08:22:10;;;;;;;5.43;3.03;;;;;;;-0.63;96.43;99175.38;10357791;28;20052;-78
2023/11/28 08:27:15;;;;;;;6.05;3.25;;;;;;;-0.73;97.02;99180.28;10355031;28;20890;-78
2023/11/28 08:32:20;;;;;;;5.05;3.80;;;;;;;-0.75;97.93;99199.75;10373300;28;20069;-80
2023/11/28 08:37:24;;;;;;;5.40;3.60;;;;;;;-0.73;97.87;99209.28;10361514;28;20802;-78
2023/11/28 08:42:27;;;;;;;7.47;4.03;;;;;;;-0.69;97.32;99211.75;10370962;28;20052;-79
2023/11/28 08:47:31;;;;;;;7.05;4.45;;;;;;;-0.60;98.78;99227.13;10359784;28;20057;-79
2023/11/28 08:52:34;;;;;;;6.57;4.05;;;;;;;-0.47;98.11;99227.28;10352094;28;20056;-79
2023/11/28 08:57:37;;;;;;;6.82;4.82;;;;;;;-0.17;96.10;99243.25;10354623;28;20049;-77
2023/11/28 09:02:43;;;;;;;5.85;4.13;;;;;;;-0.30;94.87;99246.56;10372270;28;20041;-78
2023/11/28 09:07:47;;;;;;;4.38;3.30;;;;;;;-0.35;95.17;99260.94;10360275;28;20042;-78
2023/11/28 09:12:50;;;;;;;6.82;4.40;;;;;;;-0.37;95.10;99263.66;10352782;28;20064;-78
2023/11/28 09:17:54;;;;;;;6.07;3.88;;;;;;;-0.22;97.95;99283.09;10359437;28;20140;-78
2023/11/28 09:22:57;;;;;;;5.10;3.78;;;;;;;-0.22;97.22;99283.09;10351350;28;20049;-79
2023/11/28 09:28:01;;;;;;;6.97;4.03;;;;;;;0.08;96.56;99285.84;10366836;28;20116;-78
2023/11/28 09:33:05;;;;;;;5.30;3.78;;;;;;;-0.16;92.41;99300.41;10352736;28;20053;-80
2023/11/28 09:38:09;;;;;;;7.20;3.75;;;;;;;0.13;96.74;99297.00;10392757;28;20088;-79
2023/11/28 09:43:12;;;;;;;5.47;4.03;;;;;;;0.47;95.04;99303.06;10369708;28;20041;-81
2023/11/28 09:48:17;;;;;;;7.13;3.85;;;;;;;1.03;93.37;99309.50;10351821;28;20125;-80
2023/11/28 09:53:26;;;;;;;6.07;3.70;;;;;;;0.98;92.92;99310.72;10371698;28;20054;-81
2023/11/28 09:58:35;;;;;;;6.13;3.53;;;;;;;1.14;91.13;99311.50;10357579;28;20077;-80
2023/11/28 10:03:40;;;;;;;4.95;3.80;;;;;;;0.49;90.10;99317.00;10364815;28;20054;-81
2023/11/28 10:08:47;;;;;;;3.83;3.30;;;;;;;0.37;91.92;99315.91;10354058;28;20046;-80
2023/11/28 10:13:50;;;;;;;4.70;3.58;;;;;;;0.45;91.44;99322.56;10361308;28;20049;-80
2023/11/28 10:18:55;;;;;;;5.45;3.50;;;;;;;0.45;93.18;99326.06;10366550;28;20037;-78
2023/11/28 10:23:59;;;;;;;4.63;3.40;;;;;;;0.47;91.74;99320.69;10392092;28;20069;-81
2023/11/28 10:29:02;;;;;;;3.25;2.70;;;;;;;0.61;92.00;99324.25;10369620;28;20061;-80
2023/11/28 10:34:09;;;;;;;5.13;3.67;;;;;;;1.11;93.28;99332.00;10371375;28;20176;-79
2023/11/28 10:39:13;;;;;;;3.83;3.03;;;;;;;1.30;92.96;99347.66;10368723;28;20052;-80
2023/11/28 10:44:16;;;;;;;5.68;4.20;;;;;;;1.02;88.48;99351.91;10361777;28;20076;-80
2023/11/28 10:49:20;;;;;;;5.80;4.38;;;;;;;0.91;91.38;99349.03;10373223;28;20048;-78
2023/11/28 10:54:27;;;;;;;5.53;4.15;;;;;;;1.76;91.02;99358.97;10365470;28;20042;-78
2023/11/28 10:59:35;;;;;;;5.30;3.90;;;;;;;1.34;87.72;99357.09;10369628;28;20072;-78
2023/11/28 11:04:39;;;;;;;3.88;3.58;;;;;;;0.89;88.36;99359.69;10372163;28;20042;-79
2023/11/28 11:09:44;;;;;;;4.30;3.90;;;;;;;2.32;85.75;99349.28;10356523;28;20045;-79
2023/11/28 11:14:56;;;;;;;3.78;3.35;;;;;;;4.40;86.11;99366.28;10353892;28;20045;-79
2023/11/28 11:20:04;;;;;;;3.72;3.42;;;;;;;3.68;84.05;99363.34;10369171;28;20049;-80
2023/11/28 11:25:08;;;;;;;3.95;3.40;;;;;;;2.62;88.63;99369.53;10350525;28;20085;-80
2023/11/28 11:30:12;;;;;;;3.97;3.55;;;;;;;2.76;89.81;99369.47;10349845;28;20042;-80
2023/11/28 11:35:18;;;;;;;3.95;3.17;;;;;;;1.81;89.61;99379.88;10359645;28;20057;-81
2023/11/28 11:40:22;;;;;;;4.13;3.67;;;;;;;0.97;86.98;99385.69;10364087;28;20469;-80
2023/11/28 11:45:28;;;;;;;6.55;3.60;;;;;;;0.71;90.08;99395.09;10369927;28;20056;-79
2023/11/28 11:50:33;;;;;;;6.68;3.30;;;;;;;0.77;92.63;99403.56;10363299;28;20092;-80
2023/11/28 11:55:45;;;;;;;4.30;3.22;;;;;;;0.93;92.29;99398.22;10353095;28;20054;-78
2023/11/28 12:00:48;;;;;;;4.75;3.45;;;;;;;1.17;92.60;99397.78;10360142;28;20099;-78
2023/11/28 12:05:54;;;;;;;4.75;4.03;;;;;;;1.09;91.10;99406.16;10355402;28;20079;-77
2023/11/28 12:11:08;;;;;;;6.25;3.80;;;;;;;0.91;93.47;99402.78;10357727;28;20046;-79
2023/11/28 12:16:12;;;;;;;4.22;3.65;;;;;;;0.74;92.31;99403.72;10392186;28;20050;-78
2023/11/28 12:21:17;;;;;;;4.38;3.42;;;;;;;0.75;90.58;99413.34;10386597;28;20059;-78
2023/11/28 12:26:20;;;;;;;3.03;2.70;;;;;;;0.97;89.78;99409.50;10375667;28;20052;-76
2023/11/28 12:31:23;;;;;;;4.88;3.13;;;;;;;0.98;88.60;99421.78;10355754;28;20037;-77
2023/11/28 12:36:28;;;;;;;3.03;2.72;;;;;;;1.15;91.84;99418.16;10390841;28;20124;-78
2023/11/28 12:41:37;;;;;;;3.30;2.95;;;;;;;1.19;90.58;99417.91;10349949;28;20054;-78
2023/11/28 12:46:41;;;;;;;3.72;2.90;;;;;;;1.36;89.92;99416.94;10351154;28;20521;-78
2023/11/28 12:51:46;;;;;;;5.72;3.25;;;;;;;1.36;90.44;99424.88;10355753;28;20079;-77
2023/11/28 12:56:52;;;;;;;4.80;2.63;;;;;;;1.23;90.13;99440.59;10340834;28;20053;-77
2023/11/28 13:01:55;;;;;;;4.80;3.10;;;;;;;1.15;87.19;99428.75;10352406;28;20049;-78
2023/11/28 13:07:01;;;;;;;6.55;4.15;;;;;;;1.45;91.18;99442.00;10356363;28;20068;-77
2023/11/28 13:12:23;;;;;;;4.22;2.95;;;;;;;1.40;92.21;99452.88;10357450;28;20159;-78
2023/11/28 13:17:26;;;;;;;3.15;2.85;;;;;;;1.41;93.50;99445.78;10346136;28;20048;-79
2023/11/28 13:22:30;;;;;;;4.03;2.80;;;;;;;1.35;88.19;99454.94;10357792;28;21611;-78
2023/11/28 13:27:35;;;;;;;3.40;2.67;;;;;;;1.22;89.24;99457.41;10350390;28;20053;-78
2023/11/28 13:32:38;;;;;;;3.65;3.28;;;;;;;1.06;93.10;99468.00;10354142;28;20266;-79
2023/11/28 13:37:42;;;;;;;7.57;3.30;;;;;;;0.96;94.23;99464.19;10354989;28;20050;-78
2023/11/28 13:42:45;;;;;;;4.22;3.33;;;;;;;0.69;90.63;99457.78;10342269;28;20049;-79
2023/11/28 13:47:48;;;;;;;5.05;3.55;;;;;;;0.81;92.45;99459.75;10352088;28;20050;-78
2023/11/28 13:52:53;;;;;;;5.18;3.15;;;;;;;0.50;87.16;99474.63;10349788;28;20045;-78
2023/11/28 13:57:56;;;;;;;4.43;3.42;;;;;;;0.38;87.38;99477.91;10360663;28;20085;-77
2023/11/28 14:02:59;;;;;;;6.70;4.38;;;;;;;0.08;85.84;99486.56;10344521;28;20505;-77
2023/11/28 14:08:05;;;;;;;8.02;3.88;;;;;;;0.17;87.57;99499.25;10354355;28;20544;-78
2023/11/28 14:13:08;;;;;;;6.90;4.20;;;;;;;0.34;89.83;99494.88;10362041;28;20049;-80
2023/11/28 14:18:13;;;;;;;6.13;3.85;;;;;;;0.47;92.81;99490.66;10361682;28;20056;-80
2023/11/28 14:23:17;;;;;;;8.07;4.30;;;;;;;0.44;92.35;99489.94;10364074;28;20054;-78
2023/11/28 14:28:20;;;;;;;5.60;3.78;;;;;;;0.34;92.31;99503.66;10365228;28;20061;-79
2023/11/28 14:33:28;;;;;;;4.85;3.80;;;;;;;0.25;93.47;99505.91;10374798;28;20140;-79
2023/11/28 14:38:32;;;;;;;7.88;4.38;;;;;;;0.17;92.42;99507.19;10369303;28;20488;-80
2023/11/28 14:43:35;;;;;;;8.45;4.03;;;;;;;0.13;94.37;99516.19;10369639;28;20045;-79
2023/11/28 14:48:38;;;;;;;4.40;3.08;;;;;;;-0.02;90.70;99519.63;10395914;28;21024;-78
2023/11/28 14:53:43;;;;;;;5.35;3.75;;;;;;;-0.38;90.42;99507.38;10368926;28;20053;-80
2023/11/28 14:58:46;;;;;;;6.18;4.75;;;;;;;-0.10;92.18;99513.88;10363417;28;20155;-79
2023/11/28 15:03:49;;;;;;;14.57;7.78;;;;;;;-0.06;93.47;99521.56;10358800;28;20042;-79
2023/11/28 15:08:53;;;;;;;8.43;6.20;;;;;;;-0.02;95.27;99516.16;10360296;28;20050;-78
2023/11/28 15:13:57;;;;;;;8.98;5.30;;;;;;;-0.01;95.42;99521.34;10354653;28;20597;-80
2023/11/28 15:19:00;;;;;;;7.00;5.07;;;;;;;-0.02;96.04;99527.56;10356768;28;20057;-79
2023/11/28 15:24:04;;;;;;;6.82;4.95;;;;;;;-0.19;94.71;99515.22;10364830;28;20056;-79
2023/11/28 15:29:08;;;;;;;8.30;5.45;;;;;;;-0.16;94.69;99520.34;10348945;28;20049;-79
2023/11/28 15:34:14;;;;;;;9.07;5.80;;;;;;;-0.16;95.31;99525.63;10371179;28;21102;-78
2023/11/28 15:39:19;;;;;;;8.93;6.57;;;;;;;-0.37;91.80;99535.44;10359918;28;20140;-79
2023/11/28 15:44:22;;;;;;;9.45;6.80;;;;;;;-0.63;92.45;99533.22;10367610;28;20065;-80
2023/11/28 15:49:26;;;;;;;8.52;6.35;;;;;;;-0.38;94.18;99540.81;10369520;28;20057;-79
2023/11/28 15:54:50;;;;;;;10.20;6.50;;;;;;;-0.31;94.35;99537.78;10374781;28;20054;-79
2023/11/28 15:59:57;;;;;;;10.95;7.72;;;;;;;-0.37;93.98;99535.44;10374253;28;20097;-80
2023/11/28 16:05:01;;;;;;;11.00;6.95;;;;;;;-0.41;94.96;99546.22;10367054;28;20095;-82
2023/11/28 16:10:07;;;;;;;11.73;7.25;;;;;;;-0.42;95.29;99545.38;10375874;28;20469;-77
2023/11/28 16:15:11;;;;;;;12.15;8.13;;;;;;;-0.46;95.29;99533.28;10366814;28;20033;-79
2023/11/28 16:20:14;;;;;;;12.88;8.25;;;;;;;-0.55;95.17;99534.59;10373553;28;20072;-78
2023/11/28 16:25:19;;;;;;;12.70;7.72;;;;;;;-0.64;95.66;99520.97;10378940;28;20046;-78
2023/11/28 16:30:22;;;;;;;14.75;9.15;;;;;;;-0.70;96.07;99527.41;10375126;28;20734;-78
2023/11/28 16:35:25;;;;;;;17.05;9.07;;;;;;;-0.75;95.46;99532.03;10377461;28;20053;-78
2023/11/28 16:40:30;;;;;;;15.98;9.15;;;;;;;-0.75;95.60;99519.69;10375371;28;20053;-79
2023/11/28 16:45:33;;;;;;;15.68;8.50;;;;;;;-0.72;96.38;99523.97;10374678;28;20072;-78
2023/11/28 16:50:36;;;;;;;16.30;8.68;;;;;;;-0.82;95.90;99536.75;10370537;28;20136;-79
2023/11/28 16:55:41;;;;;;;15.15;9.05;;;;;;;-1.03;95.42;99546.53;10379494;28;20045;-79
2023/11/28 17:00:46;;;;;;;14.55;8.50;;;;;;;-1.15;96.49;99556.75;10399508;28;20051;-78
2023/11/28 17:05:49;;;;;;;17.73;9.63;;;;;;;-1.28;95.96;99554.72;10375844;28;20037;-79
2023/11/28 17:10:53;;;;;;;18.88;10.45;;;;;;;-1.44;97.27;99553.69;10375033;28;20405;-79
2023/11/28 17:15:57;;;;;;;21.85;10.25;;;;;;;-1.38;96.72;99547.28;10371789;28;20052;-79
2023/11/28 17:21:00;;;;;;;18.00;10.15;;;;;;;-1.03;95.88;99541.25;10369651;28;20060;-78
2023/11/28 17:26:06;;;;;;;19.38;10.45;;;;;;;-1.13;94.97;99542.59;10372721;28;20060;-79
2023/11/28 17:31:09;;;;;;;15.45;9.23;;;;;;;-1.12;94.76;99539.06;10368729;28;20165;-77
2023/11/28 17:36:12;;;;;;;19.45;10.50;;;;;;;-1.06;96.49;99540.53;10373915;28;20049;-80
2023/11/28 17:41:19;;;;;;;18.67;11.23;;;;;;;-1.13;96.75;99534.69;10374323;28;20144;-77
2023/11/28 17:46:23;;;;;;;19.40;10.70;;;;;;;-1.18;95.27;99537.56;10369841;28;20069;-79
2023/11/28 17:51:25;;;;;;;19.35;11.18;;;;;;;-1.25;94.90;99530.00;10375366;28;20049;-78
2023/11/28 17:56:30;;;;;;;20.92;12.20;;;;;;;-1.31;94.96;99533.78;10373494;28;20041;-78
2023/11/28 18:01:39;;;;;;;18.55;10.00;;;;;;;-1.38;93.57;99531.47;10376381;28;20068;-77
2023/11/28 18:06:50;;;;;;;20.58;10.80;;;;;;;-1.47;92.74;99524.84;10371287;28;20053;-78
2023/11/28 18:11:54;;;;;;;27.38;11.93;;;;;;;-1.45;92.56;99534.41;10378287;28;20152;-77
2023/11/28 18:16:59;;;;;;;21.95;12.00;;;;;;;-1.46;93.60;99539.72;10376940;28;20045;-78
2023/11/28 18:22:04;;;;;;;25.25;13.48;;;;;;;-1.55;94.59;99532.25;10368227;28;20057;-78
2023/11/28 18:27:08;;;;;;;25.95;13.52;;;;;;;-1.59;94.76;99533.28;10375728;28;20444;-79
2023/11/28 18:32:12;;;;;;;24.80;13.00;;;;;;;-1.53;94.37;99530.41;10368728;28;20041;-79
2023/11/28 18:37:16;;;;;;;19.80;11.85;;;;;;;-1.58;94.59;99530.59;10367973;28;20041;-79
2023/11/28 18:42:20;;;;;;;21.33;12.15;;;;;;;-1.60;95.24;99535.06;10370511;28;20134;-79
2023/11/28 18:47:23;;;;;;;28.23;13.70;;;;;;;-1.62;95.23;99529.00;10355828;28;20517;-79
2023/11/28 18:52:26;;;;;;;27.60;15.85;;;;;;;-1.74;95.31;99524.28;10396383;28;20109;-78
2023/11/28 18:57:30;;;;;;;29.52;14.50;;;;;;;-1.72;95.38;99519.81;10400248;28;20057;-78
2023/11/28 19:02:33;;;;;;;25.55;13.88;;;;;;;-1.69;95.10;99524.94;10393309;28;20053;-79
2023/11/28 19:07:37;;;;;;;27.60;14.20;;;;;;;-1.73;94.76;99524.22;10372801;28;20092;-79
2023/11/28 19:12:41;;;;;;;27.60;15.07;;;;;;;-1.76;95.37;99532.25;10400390;28;20048;-78
2023/11/28 19:17:44;;;;;;;25.70;13.60;;;;;;;-1.75;94.48;99522.59;10372092;28;20053;-79
2023/11/28 19:22:47;;;;;;;28.15;14.43;;;;;;;-1.74;95.00;99522.50;10369269;28;20290;-79
2023/11/28 19:27:52;;;;;;;28.40;13.52;;;;;;;-1.82;95.26;99505.34;10375754;28;20069;-80
2023/11/28 19:32:55;;;;;;;30.77;15.02;;;;;;;-1.96;95.21;99483.13;10378271;28;20042;-79
2023/11/28 19:37:59;;;;;;;31.33;15.85;;;;;;;-2.00;95.30;99494.72;10375871;28;20049;-79
2023/11/28 19:43:03;;;;;;;24.45;12.15;;;;;;;-2.04;94.88;99502.78;10388625;28;20042;-78
2023/11/28 19:48:09;;;;;;;28.58;14.45;;;;;;;-1.89;94.76;99513.53;10392306;28;20053;-77
2023/11/28 19:53:15;;;;;;;26.17;13.13;;;;;;;-1.88;94.52;99499.41;10390299;28;20052;-79
2023/11/28 19:58:21;;;;;;;27.42;14.30;;;;;;;-1.99;94.51;99488.50;10391368;28;20442;-79
2023/11/28 20:03:26;;;;;;;31.90;13.93;;;;;;;-1.93;94.41;99482.97;10393567;28;20057;-80
2023/11/28 20:08:29;;;;;;;21.92;12.02;;;;;;;-1.94;94.33;99478.63;10406510;28;20057;-79
2023/11/28 20:13:34;;;;;;;23.73;11.77;;;;;;;-1.99;93.87;99466.59;10404773;28;20050;-78
2023/11/28 20:18:38;;;;;;;28.10;13.32;;;;;;;-1.96;93.86;99469.94;10397523;28;20049;-77
2023/11/28 20:23:41;;;;;;;25.60;14.10;;;;;;;-1.84;93.56;99458.00;10382927;28;20092;-79
2023/11/28 20:28:47;;;;;;;26.48;14.23;;;;;;;-1.85;93.68;99453.69;10379232;28;20056;-79
2023/11/28 20:33:51;;;;;;;21.10;11.13;;;;;;;-1.91;94.08;99448.69;10387271;28;20108;-78
2023/11/28 20:38:54;;;;;;;26.00;13.30;;;;;;;-2.04;94.28;99443.13;10383259;28;20037;-78
2023/11/28 20:44:00;;;;;;;23.00;10.45;;;;;;;-1.93;94.65;99430.31;10390792;28;20052;-80
2023/11/28 20:49:03;;;;;;;18.90;10.20;;;;;;;-2.15;94.65;99429.56;10378817;28;20049;-79
2023/11/28 20:54:10;;;;;;;21.15;10.20;;;;;;;-1.93;93.48;99434.75;10395968;28;20075;-78
2023/11/28 20:59:15;;;;;;;27.38;12.27;;;;;;;-1.82;92.74;99434.25;10395209;28;20053;-77
2023/11/28 21:04:24;;;;;;;22.52;11.63;;;;;;;-1.53;91.74;99428.53;10406277;28;20056;-77
2023/11/28 21:09:27;;;;;;;24.52;12.73;;;;;;;-1.51;91.83;99418.78;10385901;28;20049;-78
2023/11/28 21:14:33;;;;;;;20.50;11.02;;;;;;;-1.53;91.48;99419.78;10387673;28;20053;-78
2023/11/28 21:19:36;;;;;;;17.67;10.65;;;;;;;-1.34;89.72;99410.09;10381107;28;20339;-79
2023/11/28 21:24:40;;;;;;;15.13;8.00;;;;;;;-1.43;89.62;99399.94;10408469;28;20049;-78
2023/11/28 21:29:46;;;;;;;19.98;9.88;;;;;;;-1.28;88.67;99393.13;10392780;28;20042;-77
2023/11/28 21:34:50;;;;;;;18.58;9.55;;;;;;;-1.35;89.68;99379.38;10389172;28;20132;-80
2023/11/28 21:39:53;;;;;;;19.50;10.85;;;;;;;-1.51;89.83;99378.38;10400917;28;20029;-79
2023/11/28 21:44:58;;;;;;;13.77;8.75;;;;;;;-1.40;89.14;99378.72;10389778;28;20120;-77
2023/11/28 21:50:07;;;;;;;14.77;7.80;;;;;;;-1.58;89.92;99369.94;10393466;28;20068;-79
2023/11/28 21:55:15;;;;;;;18.15;8.27;;;;;;;-1.21;88.45;99368.16;10383224;28;20618;-78
2023/11/28 22:00:21;;;;;;;13.93;8.00;;;;;;;-1.49;89.23;99360.75;10393508;28;20045;-78
2023/11/28 22:05:24;;;;;;;15.15;9.07;;;;;;;-1.45;89.76;99339.47;10383707;28;20050;-78
2023/11/28 22:10:29;;;;;;;15.48;8.80;;;;;;;-1.50;89.18;99344.09;10380011;28;20075;-78
2023/11/28 22:15:36;;;;;;;13.43;7.07;;;;;;;-1.49;89.17;99340.53;10392002;28;20053;-79
2023/11/28 22:20:42;;;;;;;18.80;9.88;;;;;;;-1.48;89.32;99336.09;10372890;28;20079;-77
2023/11/28 22:25:45;;;;;;;17.60;9.55;;;;;;;-1.49;89.30;99339.66;10404262;28;20138;-78
2023/11/28 22:30:49;;;;;;;17.30;9.48;;;;;;;-1.80;90.60;99329.75;10361674;28;20046;-78
2023/11/28 22:35:52;;;;;;;13.30;7.78;;;;;;;-1.59;90.49;99318.19;10366197;28;20050;-78
2023/11/28 22:40:55;;;;;;;20.35;11.45;;;;;;;-1.52;90.05;99318.75;10355771;28;20054;-78
2023/11/28 22:46:00;;;;;;;14.02;7.15;;;;;;;-1.80;90.39;99327.13;10366121;28;20053;-78
2023/11/28 22:51:03;;;;;;;19.25;9.88;;;;;;;-1.37;88.69;99304.84;10360824;28;21098;-79
2023/11/28 22:56:11;;;;;;;17.10;9.50;;;;;;;-1.29;88.32;99302.69;10352221;28;20080;-79
2023/11/28 23:01:20;;;;;;;23.58;9.90;;;;;;;-1.50;89.44;99291.41;10359104;28;20053;-78
2023/11/28 23:06:27;;;;;;;17.48;8.52;;;;;;;-1.67;90.48;99289.59;10358350;28;20551;-78
2023/11/28 23:11:31;;;;;;;15.40;7.25;;;;;;;-1.47;89.84;99282.50;10349724;28;20058;-79
2023/11/28 23:16:35;;;;;;;13.90;7.57;;;;;;;-1.52;89.44;99259.03;10357738;28;20140;-78
2023/11/28 23:21:38;;;;;;;12.27;6.22;;;;;;;-1.48;88.79;99251.81;10352056;28;20157;-79